»·PEaware :: N83AM KLAX-KSAN

N83AM :: KLAX-KSAN

FLIGHT INFORMATION

Flight Status: Arrived
Operator: Privately registered:
United States
More flights under this callsign
Pilot: Andrew M. (18915)
Aircraft: CESSNA 172 SKYHAWK
(C172)
More flights by this aircraft type
Origin: KLAX Los Angeles Intl
United States
Destination: KSAN San Diego Intl-Lindbergh
United States
More flights between these airports :: More routes between these airports
Route: +LAX V25 MZB
File this flight plan on PilotEdge
Remarks: Sample flight plan
Altitude:
(Current/Filed)
5,500ft
Speed:
(Current/Filed)
120kts
Departed: 25-Apr-18 04:10 PM
Arrived: 25-Apr-18 05:11 PM
Distance/Time
Traveled:
95nm/1:01
Distance/Time
To Go:
Arrived

Flight Plot

Page will automatically refresh every two minutes.


Map Options




Map Legend


Flown Route
Filed Route
Departure Airport
Arrival Airport
Navaid (VOR, NDB)
Fix

Horizontal Profiles

Position Reports

Time Latitude Longitude Heading Altitude Ground
Speed
25-Apr-18 15:38 33.932738 -118.399121 21 111ft 0kts
25-Apr-18 15:39 33.932738 -118.399121 21 111ft 0kts
25-Apr-18 15:40 33.932738 -118.399121 21 111ft 0kts
25-Apr-18 15:41 33.932738 -118.399121 21 111ft 0kts
25-Apr-18 15:42 33.932738 -118.399121 21 111ft 0kts
25-Apr-18 15:43 33.932738 -118.399121 21 111ft 0kts
25-Apr-18 15:44 33.932738 -118.399121 21 111ft 0kts
25-Apr-18 15:45 33.932738 -118.399121 21 111ft 0kts
25-Apr-18 15:46 33.932738 -118.399121 21 111ft 0kts
25-Apr-18 15:47 33.932738 -118.399121 21 111ft 0kts
25-Apr-18 15:48 33.932738 -118.399121 21 111ft 0kts
25-Apr-18 15:49 33.932738 -118.399121 21 111ft 0kts
25-Apr-18 15:50 33.932738 -118.399121 21 111ft 0kts
25-Apr-18 15:51 33.932738 -118.399121 21 111ft 0kts
25-Apr-18 15:52 33.932738 -118.399121 21 111ft 0kts
25-Apr-18 15:53 33.932738 -118.399121 21 111ft 0kts
25-Apr-18 15:54 33.932738 -118.399121 21 111ft 0kts
25-Apr-18 15:55 33.932738 -118.399121 21 111ft 0kts
25-Apr-18 15:56 33.932738 -118.399121 21 111ft 0kts
25-Apr-18 15:57 33.932738 -118.399121 21 111ft 0kts
25-Apr-18 15:58 33.932738 -118.399121 21 111ft 0kts
25-Apr-18 15:59 33.932738 -118.399121 21 111ft 0kts
25-Apr-18 16:00 33.932738 -118.399121 21 111ft 0kts
25-Apr-18 16:01 33.932738 -118.399121 21 111ft 0kts
25-Apr-18 16:02 33.934000 -118.398117 4 109ft 9kts
25-Apr-18 16:03 33.935114 -118.392798 80 102ft 23kts
25-Apr-18 16:04 33.935929 -118.384662 85 99ft 26kts
25-Apr-18 16:05 33.936194 -118.381741 28 96ft 0kts
25-Apr-18 16:06 33.936473 -118.382729 349 96ft 0kts
25-Apr-18 16:07 33.936473 -118.382729 349 96ft 0kts
25-Apr-18 16:08 33.936473 -118.382729 349 96ft 0kts
25-Apr-18 16:09 33.936946 -118.394198 268 345ft 71kts
25-Apr-18 16:10 33.938086 -118.417355 269 1219ft 70kts
25-Apr-18 16:11 33.938470 -118.440974 267 2067ft 69kts
25-Apr-18 16:12 33.926609 -118.453558 186 2692ft 78kts
25-Apr-18 16:13 33.905538 -118.450016 171 3046ft 89kts
25-Apr-18 16:14 33.880625 -118.435268 153 3009ft 109kts
25-Apr-18 16:15 33.852586 -118.416084 153 2962ft 119kts
25-Apr-18 16:16 33.823536 -118.397601 153 2946ft 121kts
25-Apr-18 16:17 33.793786 -118.379501 152 2921ft 119kts
25-Apr-18 16:18 33.764326 -118.361667 152 2896ft 118kts
25-Apr-18 16:19 33.736445 -118.342393 134 3005ft 112kts
25-Apr-18 16:20 33.716829 -118.314253 128 3303ft 109kts
25-Apr-18 16:21 33.698500 -118.286644 125 3707ft 100kts
25-Apr-18 16:22 33.682437 -118.260708 124 4205ft 94kts
25-Apr-18 16:23 33.669295 -118.237551 121 4851ft 79kts
25-Apr-18 16:24 33.656863 -118.214610 118 5422ft 88kts
25-Apr-18 16:25 33.642474 -118.184213 117 5479ft 114kts
25-Apr-18 16:26 33.627369 -118.150129 117 5495ft 115kts
25-Apr-18 16:27 33.612884 -118.117493 119 5511ft 104kts
25-Apr-18 16:28 33.596414 -118.089256 132 5526ft 103kts
25-Apr-18 16:29 33.577286 -118.063658 134 5534ft 103kts
25-Apr-18 16:30 33.557278 -118.038841 137 5536ft 103kts
25-Apr-18 16:31 33.536488 -118.014456 139 5521ft 107kts
25-Apr-18 16:32 33.515242 -117.989024 137 5521ft 108kts
25-Apr-18 16:33 33.494329 -117.963147 135 5521ft 109kts
25-Apr-18 16:34 33.473586 -117.936423 139 5521ft 109kts
25-Apr-18 16:35 33.451712 -117.911172 140 5523ft 109kts
25-Apr-18 16:36 33.429301 -117.886734 140 5524ft 109kts
25-Apr-18 16:37 33.406450 -117.862522 142 5525ft 110kts
25-Apr-18 16:38 33.383366 -117.838475 142 5527ft 109kts
25-Apr-18 16:39 33.360183 -117.814793 155 5526ft 108kts
25-Apr-18 16:40 33.333644 -117.797170 151 5529ft 109kts
25-Apr-18 16:41 33.308572 -117.776195 147 5531ft 111kts
25-Apr-18 16:42 33.284207 -117.753249 145 5532ft 112kts
25-Apr-18 16:43 33.260347 -117.729416 144 5532ft 112kts
25-Apr-18 16:44 33.236658 -117.704885 142 5532ft 112kts
25-Apr-18 16:45 33.213362 -117.680055 143 5532ft 112kts
25-Apr-18 16:46 33.189943 -117.655240 142 5532ft 112kts
25-Apr-18 16:47 33.166713 -117.630046 143 5532ft 112kts
25-Apr-18 16:48 33.143228 -117.605441 143 5541ft 112kts
25-Apr-18 16:49 33.119848 -117.580860 142 5541ft 112kts
25-Apr-18 16:50 33.096438 -117.556139 142 5540ft 112kts
25-Apr-18 16:51 33.072985 -117.531337 142 5539ft 112kts
25-Apr-18 16:52 33.049456 -117.504508 136 5116ft 120kts
25-Apr-18 16:53 33.028168 -117.474200 132 4664ft 116kts
25-Apr-18 16:54 33.008230 -117.444451 131 4436ft 115kts
25-Apr-18 16:55 32.991098 -117.419464 134 4270ft 116kts
25-Apr-18 16:56 32.969584 -117.390476 134 4071ft 114kts
25-Apr-18 16:57 32.947129 -117.365055 144 3869ft 108kts
25-Apr-18 16:58 32.924200 -117.343627 146 3670ft 104kts
25-Apr-18 16:59 32.901343 -117.322407 146 3620ft 108kts
25-Apr-18 17:00 32.876468 -117.299681 146 3599ft 114kts
25-Apr-18 17:01 32.851160 -117.277359 151 3522ft 114kts
25-Apr-18 17:02 32.823783 -117.256894 151 3148ft 117kts
25-Apr-18 17:03 32.796264 -117.235306 148 2837ft 123kts
25-Apr-18 17:04 32.768831 -117.213710 148 2114ft 113kts
25-Apr-18 17:05 32.746959 -117.190538 108 1382ft 100kts
25-Apr-18 17:06 32.740308 -117.163320 99 1283ft 75kts
25-Apr-18 17:07 32.730622 -117.144919 207 1271ft 61kts
25-Apr-18 17:08 32.726633 -117.162094 287 679ft 60kts
25-Apr-18 17:09 32.730845 -117.178544 285 73ft 47kts
25-Apr-18 17:10 32.733159 -117.184185 34 17ft 0kts
25-Apr-18 17:11 32.732671 -117.181194 107 17ft 24kts
25-Apr-18 17:12 32.733095 -117.179278 51 20ft 12kts
25-Apr-18 17:13 32.733231 -117.178648 232 20ft 0kts
25-Apr-18 17:14 32.733231 -117.178648 232 20ft 0kts
25-Apr-18 17:15 32.733231 -117.178648 232 20ft 0kts
25-Apr-18 17:16 32.733231 -117.178648 232 20ft 0kts

Navigation Log

Ident Type
Flight plan parsing failed, navigation log unavailable